Time;durP1;ratioP1;P1;durP2;ratioP2;P2;SDS_P1;SDS_P2;PMS_P1;PMS_P2;Temp;Humidity;BMP_temperature;BMP_pressure;BME280_temperature;BME280_humidity;BME280_pressure;Samples;Min_cycle;Max_cycle;Signal;HPM_P1;HPM_P2
2023/01/03 00:01:20;;;;;;;1.30;1.20;;;11.40;65.10;;;;;;5048968;28;20033;-64
2023/01/03 00:03:46;;;;;;;1.05;1.00;;;11.40;65.00;;;;;;5040626;28;20040;-64
2023/01/03 00:06:24;;;;;;;1.30;1.20;;;11.40;65.10;;;;;;5036272;28;20033;-63
2023/01/03 00:08:50;;;;;;;1.65;1.00;;;11.40;65.30;;;;;;5043241;28;20040;-64
2023/01/03 00:12:22;;;;;;;1.02;0.90;;;11.40;65.20;;;;;;5040125;28;20078;-64
2023/01/03 00:14:11;;;;;;;0.95;0.93;;;11.40;65.40;;;;;;5033738;28;20141;-65
2023/01/03 00:16:37;;;;;;;1.67;1.20;;;11.40;65.30;;;;;;5036771;28;20518;-63
2023/01/03 00:19:13;;;;;;;1.58;1.20;;;11.40;65.30;;;;;;5040647;28;20045;-64
2023/01/03 00:21:39;;;;;;;1.10;1.10;;;11.40;65.40;;;;;;5031924;28;20024;-65
2023/01/03 00:24:05;;;;;;;1.40;1.30;;;11.40;65.20;;;;;;5047779;28;20100;-63
2023/01/03 00:26:31;;;;;;;1.33;1.20;;;11.40;65.20;;;;;;5037602;28;20444;-63
2023/01/03 00:28:57;;;;;;;1.52;1.42;;;11.40;65.20;;;;;;5037704;28;20048;-63
2023/01/03 00:31:23;;;;;;;1.20;1.10;;;11.40;65.30;;;;;;5045706;28;20045;-64
2023/01/03 00:33:48;;;;;;;1.20;1.10;;;11.40;65.30;;;;;;5047253;28;20103;-64
2023/01/03 00:36:14;;;;;;;1.33;1.10;;;11.40;65.30;;;;;;5046992;28;20033;-65
2023/01/03 00:38:40;;;;;;;1.30;1.20;;;11.30;65.20;;;;;;5048931;28;20086;-65
2023/01/03 00:41:15;;;;;;;2.33;1.20;;;11.30;65.30;;;;;;5048089;28;20526;-64
2023/01/03 00:43:42;;;;;;;1.10;1.10;;;11.30;65.30;;;;;;5041567;28;20052;-64
2023/01/03 00:46:10;;;;;;;1.15;1.10;;;11.30;65.30;;;;;;5049924;28;20030;-63
2023/01/03 00:48:36;;;;;;;1.60;1.20;;;11.30;65.40;;;;;;5047791;28;20037;-63
2023/01/03 00:51:08;;;;;;;1.90;1.20;;;11.30;65.50;;;;;;5052212;28;20088;-63
2023/01/03 00:53:35;;;;;;;1.42;1.33;;;11.30;65.70;;;;;;5048673;28;20030;-63
2023/01/03 00:56:09;;;;;;;1.50;1.40;;;11.30;65.60;;;;;;5046574;28;20087;-64
2023/01/03 00:58:36;;;;;;;1.40;1.30;;;11.20;65.90;;;;;;5051837;28;20739;-64
2023/01/03 01:01:11;;;;;;;1.52;1.30;;;11.30;65.80;;;;;;5047828;28;20092;-64
2023/01/03 01:03:39;;;;;;;1.33;1.20;;;11.20;65.90;;;;;;5042626;28;20057;-63
2023/01/03 01:06:23;;;;;;;2.25;1.15;;;11.20;65.90;;;;;;5053575;28;20021;-63
2023/01/03 01:08:51;;;;;;;1.00;1.00;;;11.20;66.20;;;;;;5048192;28;20055;-63
2023/01/03 01:11:17;;;;;;;2.63;1.27;;;11.20;65.90;;;;;;5044440;28;20048;-63
2023/01/03 01:13:44;;;;;;;1.83;1.20;;;11.20;66.00;;;;;;5046963;28;20096;-64
2023/01/03 01:16:15;;;;;;;1.23;1.13;;;11.20;66.10;;;;;;5049259;28;20044;-64
2023/01/03 01:18:43;;;;;;;1.92;1.40;;;11.20;66.20;;;;;;5033966;28;20104;-62
2023/01/03 01:21:13;;;;;;;1.23;1.10;;;11.20;66.10;;;;;;5044293;28;20051;-64
2023/01/03 01:23:40;;;;;;;1.30;1.00;;;11.20;66.20;;;;;;5052594;28;20021;-64
2023/01/03 01:26:07;;;;;;;1.30;1.00;;;11.20;66.10;;;;;;5043746;28;20032;-63
2023/01/03 01:28:33;;;;;;;2.28;1.05;;;11.10;66.20;;;;;;5039055;28;20057;-63
2023/01/03 01:31:01;;;;;;;1.33;1.23;;;11.10;66.20;;;;;;5048466;28;20036;-64
2023/01/03 01:33:27;;;;;;;2.15;1.00;;;11.10;66.20;;;;;;5054448;28;20033;-63
2023/01/03 01:35:53;;;;;;;1.02;0.90;;;11.10;66.20;;;;;;5047604;28;20076;-63
2023/01/03 01:38:19;;;;;;;4.15;1.30;;;11.10;66.30;;;;;;5039768;28;20037;-63
2023/01/03 01:40:44;;;;;;;1.10;1.10;;;11.10;66.40;;;;;;5047161;28;20024;-63
2023/01/03 01:46:27;;;;;;;1.05;0.93;;;11.10;66.50;;;;;;5047953;28;20056;-63
2023/01/03 01:49:01;;;;;;;0.93;0.93;;;11.10;66.70;;;;;;5047120;28;20041;-63
2023/01/03 01:51:29;;;;;;;3.92;1.10;;;11.10;66.60;;;;;;5064763;28;20156;-64
2023/01/03 01:53:58;;;;;;;1.20;1.10;;;11.00;66.40;;;;;;5039389;28;20053;-64
2023/01/03 01:56:40;;;;;;;1.73;1.20;;;11.00;66.50;;;;;;5051496;28;20035;-64
2023/01/03 01:59:08;;;;;;;3.38;1.10;;;11.00;66.70;;;;;;5046914;28;20035;-64
2023/01/03 02:01:34;;;;;;;0.95;0.95;;;11.00;66.50;;;;;;5038906;28;20427;-65
2023/01/03 02:04:18;;;;;;;1.13;1.00;;;11.00;66.60;;;;;;5047509;28;20071;-64
2023/01/03 02:06:44;;;;;;;1.42;0.90;;;11.00;66.60;;;;;;5038721;28;20041;-64
2023/01/03 02:09:09;;;;;;;0.90;0.90;;;11.00;66.50;;;;;;5044420;28;20041;-64
2023/01/03 02:11:38;;;;;;;1.05;1.05;;;11.00;66.50;;;;;;5044619;28;20041;-64
2023/01/03 02:14:34;;;;;;;0.90;0.90;;;10.90;66.50;;;;;;5045821;28;20040;-63
2023/01/03 02:17:44;;;;;;;0.93;0.93;;;10.90;67.00;;;;;;5049767;28;20048;-63
2023/01/03 02:20:20;;;;;;;0.95;0.90;;;10.90;66.80;;;;;;5035507;28;20106;-63
2023/01/03 02:23:15;;;;;;;0.95;0.95;;;10.90;66.60;;;;;;5046077;28;20089;-63
2023/01/03 02:26:02;;;;;;;0.90;0.90;;;10.90;66.90;;;;;;5048276;28;20818;-63
2023/01/03 02:29:01;;;;;;;3.28;1.15;;;10.90;67.00;;;;;;5050643;28;20052;-64
2023/01/03 02:31:34;;;;;;;0.95;0.95;;;10.90;66.90;;;;;;5039009;28;20037;-64
2023/01/03 02:34:13;;;;;;;0.90;0.90;;;10.80;66.70;;;;;;5043258;28;20093;-64
2023/01/03 02:36:39;;;;;;;1.55;1.10;;;10.80;66.90;;;;;;5038377;28;20033;-64
2023/01/03 02:39:13;;;;;;;1.23;1.02;;;10.80;66.80;;;;;;5050636;28;20040;-64
2023/01/03 02:45:13;;;;;;;1.20;1.10;;;10.80;67.20;;;;;;4987898;28;20081;-62
2023/01/03 02:47:53;;;;;;;1.08;1.08;;;10.80;67.30;;;;;;4988886;28;20030;-64
2023/01/03 02:50:24;;;;;;;1.10;1.00;;;10.80;67.30;;;;;;4978379;28;20034;-63
2023/01/03 02:52:53;;;;;;;1.95;1.10;;;10.70;67.10;;;;;;4987219;28;20042;-63
2023/01/03 02:55:23;;;;;;;1.08;0.98;;;10.70;67.20;;;;;;4972340;28;20096;-63
2023/01/03 02:58:02;;;;;;;2.00;1.00;;;10.70;67.30;;;;;;4986333;28;20515;-62
2023/01/03 03:00:31;;;;;;;2.45;1.08;;;10.70;67.40;;;;;;4992187;28;20034;-63
2023/01/03 03:03:02;;;;;;;1.08;0.98;;;10.60;67.30;;;;;;4978976;28;20039;-63
2023/01/03 03:05:33;;;;;;;1.00;1.00;;;10.60;67.30;;;;;;4977900;28;20031;-63
2023/01/03 03:07:58;;;;;;;1.10;0.80;;;10.60;67.50;;;;;;4994958;28;20050;-65
2023/01/03 03:13:38;;;;;;;1.85;1.20;;;10.50;67.50;;;;;;4989304;28;20046;-62
2023/01/03 03:16:46;;;;;;;1.10;1.00;;;10.50;67.80;;;;;;4983315;28;20038;-63
2023/01/03 03:24:48;;;;;;;1.15;1.05;;;10.50;67.80;;;;;;4995653;28;20564;-63
2023/01/03 03:25:07;;;;;;;2.17;1.23;;;10.50;67.70;;;;;;5047353;28;20079;-62
2023/01/03 03:30:24;;;;;;;2.42;1.10;;;10.40;67.80;;;;;;5048265;28;20052;-64
2023/01/03 03:32:53;;;;;;;1.67;1.20;;;10.40;67.90;;;;;;5049737;28;20032;-64
2023/01/03 03:35:21;;;;;;;1.35;1.05;;;10.40;67.90;;;;;;5052403;28;20052;-64
2023/01/03 03:37:48;;;;;;;1.98;1.08;;;10.30;67.80;;;;;;5055161;28;20025;-64
2023/01/03 03:46:29;;;;;;;1.50;1.20;;;10.20;68.10;;;;;;5042501;28;20105;-62
2023/01/03 03:51:56;;;;;;;1.25;1.00;;;10.20;68.20;;;;;;5048265;28;20056;-63
2023/01/03 03:54:23;;;;;;;1.58;1.00;;;10.20;68.00;;;;;;5042170;28;20034;-63
2023/01/03 03:56:55;;;;;;;1.70;1.02;;;10.10;68.00;;;;;;5048721;28;20381;-63
2023/01/03 03:59:23;;;;;;;1.38;1.27;;;10.10;68.20;;;;;;5048289;28;20022;-64
2023/01/03 04:01:51;;;;;;;6.32;2.92;;;10.10;68.20;;;;;;5037549;28;20029;-62
2023/01/03 04:04:30;;;;;;;12.48;5.55;;;10.10;68.80;;;;;;5048197;28;20030;-63
2023/01/03 04:06:55;;;;;;;9.63;5.45;;;10.00;68.30;;;;;;5045515;28;20045;-63
2023/01/03 04:09:21;;;;;;;6.50;3.97;;;10.00;68.10;;;;;;5051471;28;20053;-62
2023/01/03 04:11:47;;;;;;;4.05;2.85;;;10.00;68.10;;;;;;5042717;28;20029;-63
2023/01/03 04:14:13;;;;;;;3.88;2.08;;;10.00;68.20;;;;;;5050454;28;20025;-63
2023/01/03 04:16:39;;;;;;;3.97;2.40;;;9.90;68.30;;;;;;5047810;28;20047;-63
2023/01/03 04:19:05;;;;;;;6.07;2.20;;;9.90;68.20;;;;;;5039700;28;20022;-63
2023/01/03 04:21:31;;;;;;;2.58;2.17;;;9.90;68.40;;;;;;5051283;28;20044;-64
2023/01/03 04:23:57;;;;;;;3.60;2.10;;;9.90;68.60;;;;;;5045177;28;20487;-64
2023/01/03 04:26:22;;;;;;;14.30;4.05;;;9.80;68.70;;;;;;5056010;28;20029;-64
2023/01/03 04:28:48;;;;;;;7.25;3.47;;;9.80;68.70;;;;;;5046783;28;20038;-65
2023/01/03 04:31:14;;;;;;;7.35;2.90;;;9.80;68.90;;;;;;5051203;28;20464;-64
2023/01/03 04:33:41;;;;;;;9.45;3.40;;;9.80;68.70;;;;;;5044469;28;20025;-64
2023/01/03 04:36:07;;;;;;;7.35;2.55;;;9.80;68.70;;;;;;5059064;28;20032;-65
2023/01/03 04:38:32;;;;;;;7.05;3.00;;;9.70;68.70;;;;;;5051046;28;20033;-64
2023/01/03 04:41:06;;;;;;;9.57;3.15;;;9.70;68.80;;;;;;5046810;28;20061;-64
2023/01/03 04:46:16;;;;;;;6.43;3.13;;;9.70;68.90;;;;;;5041760;28;20072;-64
2023/01/03 04:48:41;;;;;;;8.88;3.10;;;9.70;68.90;;;;;;5053231;28;20044;-64
2023/01/03 04:51:07;;;;;;;3.35;1.83;;;9.70;68.90;;;;;;5048669;28;20101;-64
2023/01/03 04:53:33;;;;;;;5.38;1.90;;;9.70;69.00;;;;;;5045710;28;20106;-64
2023/01/03 04:55:58;;;;;;;4.35;1.80;;;9.70;69.00;;;;;;5050724;28;20033;-63
2023/01/03 04:58:24;;;;;;;4.97;1.80;;;9.70;69.00;;;;;;5046712;28;20110;-63
2023/01/03 05:00:50;;;;;;;6.18;1.65;;;9.60;69.00;;;;;;5046766;28;20028;-63
2023/01/03 05:03:16;;;;;;;3.00;1.60;;;9.60;69.10;;;;;;5051113;28;20089;-65
2023/01/03 05:05:42;;;;;;;3.75;1.85;;;9.60;69.20;;;;;;5049321;28;20041;-62
2023/01/03 05:08:10;;;;;;;2.28;1.58;;;9.60;69.20;;;;;;5049728;28;20037;-64
2023/01/03 05:10:40;;;;;;;1.80;1.60;;;9.60;69.30;;;;;;5042486;28;20033;-62
2023/01/03 05:13:06;;;;;;;2.55;1.73;;;9.60;69.50;;;;;;5042694;28;20018;-62
2023/01/03 05:15:35;;;;;;;1.67;1.17;;;9.50;69.30;;;;;;5048289;28;20109;-63
2023/01/03 05:18:01;;;;;;;6.55;1.83;;;9.50;69.50;;;;;;5046919;28;20029;-64
2023/01/03 05:26:05;;;;;;;3.45;1.88;;;9.50;69.30;;;;;;5057866;28;20044;-63
2023/01/03 05:28:31;;;;;;;2.22;1.48;;;9.50;69.40;;;;;;5045080;28;20061;-63
2023/01/03 05:30:57;;;;;;;2.05;1.73;;;9.50;69.30;;;;;;5043008;28;20033;-63
2023/01/03 05:33:24;;;;;;;1.73;1.52;;;9.50;69.40;;;;;;5047154;28;20839;-64
2023/01/03 05:35:49;;;;;;;3.30;1.67;;;9.40;69.40;;;;;;5041183;28;20040;-63
2023/01/03 05:38:15;;;;;;;1.65;1.55;;;9.40;69.40;;;;;;5044792;28;20044;-65
2023/01/03 05:40:41;;;;;;;1.60;1.25;;;9.40;69.50;;;;;;5043294;28;20021;-64
2023/01/03 05:43:07;;;;;;;1.88;1.50;;;9.30;69.50;;;;;;5041728;28;20075;-64
2023/01/03 05:45:36;;;;;;;1.80;1.60;;;9.30;69.50;;;;;;5044992;28;20159;-64
2023/01/03 05:48:03;;;;;;;1.48;1.38;;;9.30;69.60;;;;;;5042119;28;20132;-64
2023/01/03 05:50:29;;;;;;;2.20;1.50;;;9.30;69.50;;;;;;5041421;28;20596;-64
2023/01/03 05:52:54;;;;;;;2.28;1.55;;;9.30;69.60;;;;;;5030403;28;20068;-64
2023/01/03 05:55:21;;;;;;;3.60;1.48;;;9.30;69.70;;;;;;5040950;28;20030;-64
2023/01/03 05:57:47;;;;;;;2.25;1.70;;;9.30;69.70;;;;;;5039094;28;20056;-63
2023/01/03 06:00:13;;;;;;;1.58;1.40;;;9.20;69.70;;;;;;5032538;28;20034;-62
2023/01/03 06:02:39;;;;;;;2.58;1.50;;;9.20;69.70;;;;;;5040008;28;20626;-63
2023/01/03 06:05:06;;;;;;;2.10;1.70;;;9.20;69.80;;;;;;5046374;28;20033;-64
2023/01/03 06:07:32;;;;;;;5.05;1.80;;;9.20;69.90;;;;;;5037809;28;20037;-64
2023/01/03 06:10:00;;;;;;;2.95;1.67;;;9.20;70.00;;;;;;5046961;28;20035;-66
2023/01/03 06:12:27;;;;;;;4.50;1.65;;;9.20;70.00;;;;;;5062492;28;20044;-64
2023/01/03 06:14:53;;;;;;;2.08;1.52;;;9.20;70.00;;;;;;5053713;28;20017;-63
2023/01/03 06:20:03;;;;;;;;;;;9.10;69.90;;;;;;5062551;28;20044;-66
2023/01/03 06:22:29;;;;;;;3.45;1.73;;;9.10;70.10;;;;;;5055130;28;19913;-65
2023/01/03 06:24:55;;;;;;;6.90;2.03;;;9.10;69.40;;;;;;5065074;28;20021;-65
2023/01/03 06:27:20;;;;;;;3.30;1.70;;;9.00;69.50;;;;;;5060423;28;20030;-64
2023/01/03 06:29:46;;;;;;;2.35;1.63;;;9.00;69.60;;;;;;5057812;28;20025;-64
2023/01/03 06:32:12;;;;;;;1.70;1.60;;;9.00;69.70;;;;;;5051070;28;20033;-64
2023/01/03 06:34:37;;;;;;;2.72;1.88;;;9.00;69.70;;;;;;5056826;28;20025;-64
2023/01/03 06:37:03;;;;;;;1.73;1.52;;;8.90;69.80;;;;;;5044239;28;20085;-66
2023/01/03 06:39:29;;;;;;;2.55;1.70;;;8.90;69.90;;;;;;5051377;28;20071;-65
2023/01/03 06:41:54;;;;;;;2.88;1.80;;;8.90;69.90;;;;;;5044438;28;20409;-64
2023/01/03 06:44:20;;;;;;;2.47;1.50;;;8.90;70.00;;;;;;5043537;28;20036;-64
2023/01/03 06:55:00;;;;;;;4.30;1.67;;;8.80;70.20;;;;;;5036830;28;20048;-64
2023/01/03 06:57:26;;;;;;;2.03;1.83;;;8.70;70.30;;;;;;5041376;28;20021;-64
2023/01/03 06:59:52;;;;;;;4.53;1.80;;;8.70;70.50;;;;;;5053362;28;20067;-65
2023/01/03 07:02:17;;;;;;;1.98;1.70;;;8.70;70.70;;;;;;5044995;28;20051;-64
2023/01/03 07:04:43;;;;;;;2.35;1.60;;;8.70;70.80;;;;;;5041113;28;20155;-64
2023/01/03 07:07:08;;;;;;;2.42;1.52;;;8.70;70.90;;;;;;5046579;28;20112;-62
2023/01/03 07:09:34;;;;;;;1.55;1.45;;;8.70;70.90;;;;;;5039697;28;20120;-63
2023/01/03 07:13:57;;;;;;;1.90;1.70;;;8.70;70.90;;;;;;5046632;28;20383;-64
2023/01/03 07:14:45;;;;;;;2.65;1.70;;;8.70;70.90;;;;;;5046383;28;20091;-64
2023/01/03 07:17:15;;;;;;;3.17;1.70;;;8.70;70.90;;;;;;5047002;28;20025;-64
2023/01/03 07:19:40;;;;;;;1.88;1.70;;;8.70;70.90;;;;;;5031677;28;20044;-64
2023/01/03 07:22:06;;;;;;;3.83;1.70;;;8.70;70.90;;;;;;5053332;28;20024;-64
2023/01/03 07:24:31;;;;;;;2.22;1.73;;;8.70;70.90;;;;;;5028280;28;20034;-63
2023/01/03 07:26:57;;;;;;;8.43;4.60;;;8.70;70.90;;;;;;5041164;28;20085;-63
2023/01/03 07:29:23;;;;;;;2.50;2.13;;;8.60;70.80;;;;;;5039140;28;20089;-64
2023/01/03 07:31:48;;;;;;;3.55;2.47;;;8.60;70.80;;;;;;5045517;28;20085;-65
2023/01/03 07:34:14;;;;;;;3.47;2.10;;;8.60;70.80;;;;;;5042428;28;20021;-65
2023/01/03 07:36:39;;;;;;;4.55;2.17;;;8.60;70.80;;;;;;5043404;28;20112;-64
2023/01/03 07:39:05;;;;;;;3.80;1.70;;;8.60;70.80;;;;;;5035850;28;20033;-64
2023/01/03 07:44:15;;;;;;;4.35;1.63;;;8.60;70.80;;;;;;5034739;28;20039;-64
2023/01/03 07:46:41;;;;;;;2.00;1.45;;;8.60;70.80;;;;;;5054016;28;20088;-64
2023/01/03 07:49:07;;;;;;;2.83;1.50;;;8.60;70.80;;;;;;5046256;28;20060;-65
2023/01/03 07:51:32;;;;;;;1.63;1.35;;;8.50;70.70;;;;;;5014275;28;1144191;-65
2023/01/03 07:53:58;;;;;;;1.60;1.50;;;8.50;70.60;;;;;;5052097;28;20030;-65
2023/01/03 07:56:24;;;;;;;3.53;1.45;;;8.50;70.60;;;;;;5048928;28;20024;-63
2023/01/03 07:58:50;;;;;;;4.93;1.40;;;8.50;70.60;;;;;;5040909;28;20032;-65
2023/01/03 08:01:23;;;;;;;3.33;1.55;;;8.50;70.60;;;;;;5044284;28;20083;-64
2023/01/03 08:03:49;;;;;;;2.38;1.50;;;8.50;70.80;;;;;;5043679;28;20032;-64
2023/01/03 08:06:20;;;;;;;3.30;1.80;;;8.40;70.70;;;;;;5044780;28;20028;-65
2023/01/03 08:13:16;;;;;;;1.40;1.30;;;8.40;70.70;;;;;;5035258;28;20060;-64
2023/01/03 08:14:15;;;;;;;2.55;1.42;;;8.40;70.60;;;;;;5046064;28;20084;-64
2023/01/03 08:16:41;;;;;;;4.35;1.95;;;8.40;70.50;;;;;;5039884;28;20042;-64
2023/01/03 08:19:06;;;;;;;7.78;2.92;;;8.40;70.60;;;;;;5042691;28;20081;-64
2023/01/03 08:21:32;;;;;;;5.90;3.30;;;8.30;70.60;;;;;;5045368;28;20045;-64
2023/01/03 08:23:58;;;;;;;4.55;2.40;;;8.30;70.60;;;;;;5033534;28;20030;-64
2023/01/03 08:26:23;;;;;;;2.58;2.00;;;8.30;70.80;;;;;;5044523;28;20041;-64
2023/01/03 08:28:50;;;;;;;3.45;1.90;;;8.30;70.80;;;;;;5045608;28;20075;-64
2023/01/03 08:31:20;;;;;;;2.40;1.75;;;8.30;71.00;;;;;;5044838;28;20104;-64
2023/01/03 08:34:00;;;;;;;4.97;1.90;;;8.30;71.20;;;;;;5039954;28;20656;-63
2023/01/03 08:36:27;;;;;;;4.05;1.90;;;8.20;71.50;;;;;;5040850;28;20559;-64
2023/01/03 08:39:02;;;;;;;3.35;2.00;;;8.30;71.30;;;;;;5044409;28;20047;-64
2023/01/03 08:41:33;;;;;;;7.35;2.40;;;8.30;71.50;;;;;;5042354;28;20053;-64
2023/01/03 08:44:01;;;;;;;5.63;3.30;;;8.30;71.40;;;;;;5036328;28;20057;-64
2023/01/03 08:46:29;;;;;;;11.23;4.10;;;8.30;71.40;;;;;;5036466;28;20037;-64
2023/01/03 08:48:55;;;;;;;10.43;4.43;;;8.30;71.50;;;;;;5042154;28;20060;-64
2023/01/03 08:51:21;;;;;;;8.00;2.88;;;8.40;71.50;;;;;;5049054;28;20025;-64
2023/01/03 08:53:46;;;;;;;3.78;2.15;;;8.40;71.50;;;;;;5047506;28;20096;-64
2023/01/03 08:56:12;;;;;;;7.35;2.80;;;8.50;71.60;;;;;;5047245;28;20022;-64
2023/01/03 08:58:38;;;;;;;5.03;2.47;;;8.50;71.60;;;;;;5048986;28;20113;-64
2023/01/03 09:01:05;;;;;;;3.70;2.50;;;8.60;71.80;;;;;;5050225;28;20033;-64
2023/01/03 09:03:31;;;;;;;3.30;2.70;;;8.70;71.90;;;;;;5046308;28;20040;-65
2023/01/03 09:06:01;;;;;;;4.97;2.22;;;8.80;72.10;;;;;;5046725;28;20025;-65
2023/01/03 09:08:33;;;;;;;3.60;2.28;;;8.90;72.30;;;;;;5045701;28;20040;-65
2023/01/03 09:11:06;;;;;;;3.95;2.47;;;9.00;72.20;;;;;;5042997;28;20346;-65
2023/01/03 09:13:32;;;;;;;5.22;2.90;;;9.10;72.10;;;;;;5039333;28;20029;-65
2023/01/03 09:16:02;;;;;;;3.17;2.65;;;9.30;72.10;;;;;;5044210;28;20472;-65
2023/01/03 09:18:28;;;;;;;3.42;2.50;;;9.40;71.90;;;;;;5045740;28;20033;-65
2023/01/03 09:20:54;;;;;;;2.88;2.40;;;9.50;71.70;;;;;;5042181;28;20018;-65
2023/01/03 09:23:19;;;;;;;3.25;2.47;;;9.60;71.50;;;;;;5041049;28;20528;-66
2023/01/03 09:25:46;;;;;;;12.35;7.95;;;9.80;71.30;;;;;;5045011;28;20021;-64
2023/01/03 09:28:12;;;;;;;10.05;7.55;;;9.90;71.10;;;;;;5049945;28;20044;-63
2023/01/03 09:30:38;;;;;;;7.78;5.50;;;10.00;71.00;;;;;;5043659;28;20030;-63
2023/01/03 09:33:04;;;;;;;6.70;4.60;;;10.00;70.70;;;;;;5048873;28;20095;-64
2023/01/03 09:35:30;;;;;;;5.95;3.25;;;10.10;70.60;;;;;;5052886;28;20089;-64
2023/01/03 09:37:56;;;;;;;4.63;3.25;;;10.20;70.50;;;;;;5051790;28;20049;-65
2023/01/03 09:40:22;;;;;;;3.15;2.80;;;10.20;70.50;;;;;;5053600;28;20037;-65
2023/01/03 09:45:35;;;;;;;2.67;2.17;;;10.40;70.30;;;;;;5048333;28;20105;-65
2023/01/03 09:48:02;;;;;;;2.38;2.17;;;10.40;70.10;;;;;;5050455;28;20103;-65
2023/01/03 09:50:32;;;;;;;2.60;1.92;;;10.50;69.90;;;;;;5040321;28;20029;-65
2023/01/03 10:04:57;;;;;;;4.45;2.42;;;10.80;69.50;;;;;;5050147;28;20044;-64
2023/01/03 10:07:37;;;;;;;4.53;2.88;;;10.90;69.60;;;;;;5033094;28;20031;-64
2023/01/03 10:10:32;;;;;;;4.15;2.60;;;10.90;69.50;;;;;;5045817;28;20025;-65
2023/01/03 10:13:30;;;;;;;5.15;2.80;;;11.00;69.50;;;;;;5049568;28;20029;-65
2023/01/03 10:16:17;;;;;;;5.45;2.80;;;11.10;69.40;;;;;;5043242;28;20131;-64
2023/01/03 10:18:56;;;;;;;5.30;2.70;;;11.10;69.10;;;;;;5046427;28;20018;-64
2023/01/03 10:21:35;;;;;;;4.97;2.83;;;11.20;68.90;;;;;;5044331;28;20029;-65
2023/01/03 10:24:01;;;;;;;3.90;3.00;;;11.20;68.60;;;;;;5043566;28;20021;-65
2023/01/03 10:26:32;;;;;;;16.38;3.38;;;11.30;68.70;;;;;;5047059;28;20261;-65
2023/01/03 10:28:58;;;;;;;3.85;2.63;;;11.30;68.40;;;;;;5046764;28;20042;-65
2023/01/03 10:31:51;;;;;;;3.50;2.63;;;11.40;68.30;;;;;;5043511;28;20384;-65
2023/01/03 10:34:17;;;;;;;3.67;2.58;;;11.40;68.10;;;;;;5043144;28;20029;-65
2023/01/03 10:36:42;;;;;;;6.20;2.80;;;11.40;68.10;;;;;;5051958;28;20124;-64
2023/01/03 10:39:09;;;;;;;5.68;2.78;;;11.50;68.20;;;;;;5047465;28;20056;-64
2023/01/03 10:41:46;;;;;;;4.22;2.47;;;11.50;68.30;;;;;;5048370;28;20029;-64
2023/01/03 10:44:27;;;;;;;3.97;2.15;;;11.50;68.00;;;;;;5042234;28;20017;-65
2023/01/03 10:46:55;;;;;;;3.45;1.90;;;11.60;68.00;;;;;;5045219;28;20017;-65
2023/01/03 10:49:23;;;;;;;4.30;2.40;;;11.60;68.00;;;;;;5042163;28;20068;-66
2023/01/03 10:52:02;;;;;;;5.80;2.72;;;11.70;67.90;;;;;;5042394;28;20068;-65
2023/01/03 10:54:47;;;;;;;2.72;2.15;;;11.80;67.70;;;;;;5045879;28;20029;-66
2023/01/03 10:57:37;;;;;;;4.72;2.60;;;11.90;67.30;;;;;;5040994;28;20037;-64
2023/01/03 11:00:33;;;;;;;4.90;3.53;;;11.90;67.00;;;;;;5032149;28;20030;-64
2023/01/03 11:03:25;;;;;;;4.18;3.28;;;12.00;66.60;;;;;;5034885;28;20017;-65
2023/01/03 11:06:00;;;;;;;7.22;3.28;;;12.00;66.40;;;;;;5041357;28;20041;-65
2023/01/03 11:08:45;;;;;;;3.55;2.50;;;12.10;66.50;;;;;;5044486;28;20047;-64
2023/01/03 11:11:32;;;;;;;3.95;2.13;;;12.10;66.40;;;;;;5044402;28;20030;-64
2023/01/03 11:14:20;;;;;;;2.97;2.15;;;12.10;66.20;;;;;;5039212;28;20038;-64
2023/01/03 11:16:53;;;;;;;2.53;1.90;;;12.10;66.10;;;;;;5046963;28;20088;-64
2023/01/03 11:19:19;;;;;;;3.22;1.92;;;12.10;66.00;;;;;;5043862;28;20026;-64
2023/01/03 11:21:52;;;;;;;3.13;2.05;;;12.20;66.20;;;;;;5047306;28;20060;-63
2023/01/03 11:24:52;;;;;;;3.35;2.13;;;12.20;65.90;;;;;;5050028;28;20033;-65
2023/01/03 11:27:36;;;;;;;3.40;2.30;;;12.10;64.90;;;;;;5046289;28;20025;-64
2023/01/03 11:30:11;;;;;;;3.28;2.30;;;12.10;65.30;;;;;;5047391;28;20413;-64
2023/01/03 11:32:42;;;;;;;3.15;2.40;;;12.10;65.40;;;;;;5037611;28;20115;-64
2023/01/03 11:35:26;;;;;;;5.63;2.45;;;12.00;65.60;;;;;;5044010;28;20014;-64
2023/01/03 11:38:14;;;;;;;3.83;2.80;;;12.00;65.50;;;;;;5044280;28;20026;-63
2023/01/03 11:41:08;;;;;;;5.68;2.42;;;12.00;65.70;;;;;;5052242;28;20081;-65
2023/01/03 11:44:03;;;;;;;4.20;2.70;;;12.00;65.90;;;;;;5043078;28;20025;-64
2023/01/03 11:46:53;;;;;;;4.35;2.67;;;12.00;66.20;;;;;;5042827;28;20056;-66
2023/01/03 11:49:30;;;;;;;5.13;2.80;;;12.10;66.10;;;;;;5049959;28;20045;-66
2023/01/03 11:52:00;;;;;;;7.03;3.67;;;12.20;65.90;;;;;;5044191;28;20048;-65
2023/01/03 11:54:43;;;;;;;5.53;3.20;;;12.20;65.80;;;;;;5043878;28;20025;-64
2023/01/03 11:57:53;;;;;;;4.60;3.38;;;12.20;65.30;;;;;;5039114;28;20032;-64
2023/01/03 12:00:40;;;;;;;5.93;2.83;;;12.20;64.90;;;;;;5033449;28;20056;-65
2023/01/03 12:03:32;;;;;;;3.78;2.67;;;12.20;65.00;;;;;;5046612;28;20032;-65
2023/01/03 12:06:27;;;;;;;2.60;2.40;;;12.20;65.20;;;;;;5006436;28;20050;-66
2023/01/03 12:09:38;;;;;;;4.10;2.63;;;12.20;65.00;;;;;;5004828;28;20041;-64
2023/01/03 12:12:19;;;;;;;4.15;1.92;;;12.10;65.00;;;;;;4959440;29;20125;-64
2023/01/03 12:14:56;;;;;;;4.10;2.25;;;12.10;65.10;;;;;;4942872;29;20466;-65
2023/01/03 12:17:28;;;;;;;4.05;2.47;;;12.00;65.00;;;;;;4950273;28;20547;-65
2023/01/03 12:20:08;;;;;;;4.70;2.70;;;12.00;65.10;;;;;;4941203;29;20028;-64
2023/01/03 12:22:39;;;;;;;5.03;2.33;;;12.00;65.40;;;;;;4955897;29;20031;-64
2023/01/03 12:25:28;;;;;;;3.97;2.35;;;12.00;65.70;;;;;;4957465;28;20118;-65
2023/01/03 12:28:02;;;;;;;3.55;2.10;;;12.10;65.90;;;;;;4956941;28;20118;-64
2023/01/03 12:30:41;;;;;;;1.73;1.63;;;12.10;65.70;;;;;;4959357;29;20045;-65
2023/01/03 12:33:22;;;;;;;3.58;2.10;;;12.20;65.30;;;;;;4957181;29;20577;-66
2023/01/03 12:36:06;;;;;;;3.67;2.33;;;12.30;65.80;;;;;;4946841;28;20103;-64
2023/01/03 12:38:39;;;;;;;3.53;2.50;;;12.30;64.70;;;;;;4952307;29;20051;-65
2023/01/03 12:41:26;;;;;;;9.82;2.40;;;12.40;64.90;;;;;;4948194;29;20023;-65
2023/01/03 12:44:01;;;;;;;3.38;1.92;;;12.40;64.10;;;;;;5033940;28;20077;-65
2023/01/03 12:46:38;;;;;;;3.70;1.90;;;12.50;64.70;;;;;;5045648;28;20024;-66
2023/01/03 12:49:11;;;;;;;3.33;1.92;;;12.50;64.30;;;;;;5049380;28;20030;-64
2023/01/03 12:51:37;;;;;;;3.38;2.10;;;12.60;64.10;;;;;;5041978;28;20049;-65
2023/01/03 12:54:17;;;;;;;2.58;2.38;;;12.60;64.00;;;;;;5051701;28;20029;-64
2023/01/03 12:57:07;;;;;;;3.30;2.60;;;12.60;63.70;;;;;;5045098;28;20037;-64
2023/01/03 13:00:00;;;;;;;6.28;4.03;;;12.60;63.40;;;;;;5041572;28;21054;-64
2023/01/03 13:02:41;;;;;;;6.03;2.83;;;12.60;63.80;;;;;;5043417;28;20041;-64
2023/01/03 13:05:15;;;;;;;3.88;2.13;;;12.60;63.70;;;;;;5041772;28;20139;-64
2023/01/03 13:08:03;;;;;;;4.70;2.30;;;12.70;63.80;;;;;;5044266;28;20041;-64
2023/01/03 13:10:32;;;;;;;2.78;1.92;;;12.70;63.50;;;;;;5044473;28;20048;-64
2023/01/03 13:13:00;;;;;;;6.97;2.08;;;12.70;63.50;;;;;;5041573;28;20025;-65
2023/01/03 13:15:33;;;;;;;3.22;2.00;;;12.60;63.50;;;;;;5045856;28;20041;-65
2023/01/03 13:18:28;;;;;;;1.92;1.65;;;12.60;63.40;;;;;;5043154;28;20021;-64
2023/01/03 13:20:54;;;;;;;3.40;2.00;;;12.60;63.90;;;;;;5044178;28;20075;-64
2023/01/03 13:23:41;;;;;;;2.70;2.22;;;12.60;63.60;;;;;;5045527;28;20029;-64
2023/01/03 13:26:23;;;;;;;5.35;3.58;;;12.50;63.40;;;;;;5045358;28;20028;-65
2023/01/03 13:28:50;;;;;;;8.65;3.85;;;12.50;63.40;;;;;;5042173;28;20030;-64
2023/01/03 13:31:16;;;;;;;6.65;3.60;;;12.40;63.30;;;;;;5048580;28;20024;-65
2023/01/03 13:33:50;;;;;;;4.20;3.03;;;12.40;63.40;;;;;;5051862;28;20025;-64
2023/01/03 13:36:17;;;;;;;3.58;2.25;;;12.30;63.20;;;;;;5049416;28;20214;-63
2023/01/03 13:38:43;;;;;;;4.18;2.35;;;12.30;63.30;;;;;;5046407;28;20026;-64
2023/01/03 13:41:35;;;;;;;4.35;2.50;;;12.20;63.20;;;;;;5048291;28;20036;-63
2023/01/03 13:44:19;;;;;;;1.95;1.70;;;12.10;63.00;;;;;;5042355;28;20088;-65
2023/01/03 13:46:46;;;;;;;2.42;1.92;;;12.10;63.30;;;;;;5041706;28;20091;-65
2023/01/03 13:49:38;;;;;;;6.93;3.03;;;12.00;63.50;;;;;;5041980;28;20041;-65
2023/01/03 13:52:05;;;;;;;6.47;3.55;;;12.00;63.20;;;;;;5043449;28;20044;-64
2023/01/03 13:54:54;;;;;;;7.30;4.45;;;11.90;63.60;;;;;;5047734;28;20348;-65
2023/01/03 13:57:36;;;;;;;10.13;5.93;;;11.80;63.50;;;;;;5051560;28;20021;-66
2023/01/03 14:00:11;;;;;;;7.47;4.05;;;11.80;63.60;;;;;;5051773;28;20025;-65
2023/01/03 14:02:52;;;;;;;7.57;3.78;;;11.70;63.70;;;;;;5046818;28;20037;-65
2023/01/03 14:05:46;;;;;;;8.20;3.75;;;11.70;63.90;;;;;;5040966;28;20033;-65
2023/01/03 14:08:27;;;;;;;12.90;7.45;;;11.60;63.90;;;;;;5045456;28;20420;-66
2023/01/03 14:11:20;;;;;;;8.80;5.90;;;11.60;64.10;;;;;;5043468;28;20078;-64
2023/01/03 14:13:52;;;;;;;7.55;4.70;;;11.50;64.00;;;;;;5034403;28;20025;-65
2023/01/03 14:16:23;;;;;;;11.77;7.00;;;11.50;64.20;;;;;;5041480;28;20353;-65
2023/01/03 14:19:15;;;;;;;15.23;8.05;;;11.50;64.20;;;;;;5047513;28;20020;-65
2023/01/03 14:22:01;;;;;;;16.42;8.82;;;11.40;64.10;;;;;;5032323;28;20628;-64